createdAt,value
2022-11-14T00:01:00.524Z,16.50
2022-11-14T00:03:49.113Z,16.65
2022-11-14T00:06:34.061Z,18.20
2022-11-14T00:09:19.366Z,17.67
2022-11-14T00:12:05.059Z,19.08
2022-11-14T00:14:50.143Z,18.63
2022-11-14T00:17:35.104Z,19.48
2022-11-14T00:20:20.247Z,18.33
2022-11-14T00:23:05.613Z,19.60
2022-11-14T00:25:50.872Z,18.70
2022-11-14T00:28:36.116Z,19.85
2022-11-14T00:31:21.336Z,19.60
2022-11-14T00:34:07.081Z,21.58
2022-11-14T00:36:52.478Z,21.25
2022-11-14T00:39:37.300Z,20.58
2022-11-14T00:42:22.491Z,18.85
2022-11-14T00:45:08.765Z,21.98
2022-11-14T00:47:53.816Z,20.08
2022-11-14T00:50:39.390Z,21.45
2022-11-14T00:53:24.490Z,19.80
2022-11-14T00:56:09.691Z,20.95
2022-11-14T00:58:54.848Z,19.20
2022-11-14T01:01:40.240Z,19.13
2022-11-14T01:04:25.598Z,17.75
2022-11-14T01:07:10.765Z,19.40
2022-11-14T01:09:56.208Z,17.52
2022-11-14T01:12:41.207Z,17.67
2022-11-14T01:15:26.442Z,16.67
2022-11-14T01:18:14.450Z,18.00
2022-11-14T01:20:59.977Z,17.90
2022-11-14T01:23:45.246Z,16.27
2022-11-14T01:26:30.428Z,16.85
2022-11-14T01:29:15.612Z,16.42
2022-11-14T01:32:00.751Z,17.17
2022-11-14T01:34:46.607Z,17.00
2022-11-14T01:37:31.969Z,17.00
2022-11-14T01:40:17.494Z,17.10
2022-11-14T01:43:18.995Z,17.00
2022-11-14T01:46:42.095Z,16.90
2022-11-14T01:49:38.351Z,15.85
2022-11-14T01:52:38.225Z,17.70
2022-11-14T01:55:24.131Z,17.48
2022-11-14T01:58:10.964Z,16.77
2022-11-14T02:01:03.872Z,16.40
2022-11-14T02:04:08.853Z,17.80
2022-11-14T02:07:15.380Z,17.13
2022-11-14T02:10:16.136Z,18.15
2022-11-14T02:13:07.349Z,16.33
2022-11-14T02:15:56.242Z,16.17
2022-11-14T02:18:42.595Z,16.13
2022-11-14T02:21:31.624Z,15.73
2022-11-14T02:24:17.359Z,11.93
2022-11-14T02:30:25.621Z,16.02
2022-11-14T02:33:22.864Z,16.98
2022-11-14T02:36:22.273Z,15.18
2022-11-14T02:39:12.635Z,15.75
2022-11-14T02:42:01.437Z,17.20
2022-11-14T02:44:56.264Z,15.40
2022-11-14T02:47:42.260Z,16.65
2022-11-14T02:50:52.081Z,16.13
2022-11-14T02:53:58.484Z,15.88
2022-11-14T03:00:29.519Z,16.08
2022-11-14T03:06:45.445Z,15.10
2022-11-14T03:10:04.846Z,15.75
2022-11-14T03:13:00.813Z,14.35
2022-11-14T03:15:47.138Z,14.02
2022-11-14T03:21:25.969Z,12.98
2022-11-14T03:24:14.316Z,13.32
2022-11-14T03:27:12.508Z,12.82
2022-11-14T03:30:06.864Z,11.90
2022-11-14T03:32:59.221Z,12.23
2022-11-14T03:35:45.814Z,10.98
2022-11-14T03:38:35.300Z,11.82
2022-11-14T03:41:30.136Z,9.85
2022-11-14T03:44:16.278Z,11.60
2022-11-14T03:47:03.536Z,12.73
2022-11-14T03:49:49.704Z,12.73
2022-11-14T03:52:38.694Z,13.30
2022-11-14T03:55:25.277Z,10.10
2022-11-14T03:58:19.919Z,12.95
2022-11-14T04:01:05.796Z,13.43
2022-11-14T04:04:00.713Z,12.90
2022-11-14T04:06:52.115Z,12.90
2022-11-14T04:09:41.194Z,12.93
2022-11-14T04:12:36.330Z,11.82
2022-11-14T04:15:22.681Z,13.05
2022-11-14T04:18:15.379Z,13.02
2022-11-14T04:21:01.914Z,11.73
2022-11-14T04:23:56.322Z,13.30
2022-11-14T04:26:45.046Z,12.57
2022-11-14T04:33:11.280Z,12.55
2022-11-14T04:39:03.735Z,12.10
2022-11-14T04:41:49.149Z,11.27
2022-11-14T04:44:34.343Z,10.88
2022-11-14T04:47:20.912Z,11.18
2022-11-14T04:50:06.535Z,11.27
2022-11-14T04:52:53.614Z,11.63
2022-11-14T04:55:38.640Z,12.23
2022-11-14T04:58:24.233Z,13.23
2022-11-14T05:01:14.418Z,12.60
2022-11-14T05:04:01.009Z,13.20
2022-11-14T05:06:46.502Z,12.85
2022-11-14T05:09:31.730Z,13.27
2022-11-14T05:12:17.108Z,13.23
2022-11-14T05:15:02.872Z,12.52
2022-11-14T05:17:47.974Z,12.32
2022-11-14T05:20:33.282Z,13.02
2022-11-14T05:23:21.438Z,14.15
2022-11-14T05:26:11.733Z,10.82
2022-11-14T05:28:56.909Z,11.73
2022-11-14T05:31:42.101Z,12.88
2022-11-14T05:34:27.539Z,12.63
2022-11-14T05:37:13.123Z,13.20
2022-11-14T05:39:58.201Z,13.50
2022-11-14T05:42:43.602Z,13.70
2022-11-14T05:45:28.879Z,13.35
2022-11-14T05:48:14.200Z,12.95
2022-11-14T05:51:01.274Z,13.73
2022-11-14T05:53:46.592Z,12.32
2022-11-14T05:56:31.725Z,14.23
2022-11-14T05:59:17.137Z,12.05
2022-11-14T06:02:02.571Z,12.02
2022-11-14T06:04:47.748Z,11.32
2022-11-14T06:07:33.106Z,11.30
2022-11-14T06:10:18.288Z,11.15
2022-11-14T06:13:03.691Z,12.65
2022-11-14T06:15:48.933Z,11.48
2022-11-14T06:18:35.026Z,10.68
2022-11-14T06:21:22.137Z,11.93
2022-11-14T06:24:07.718Z,11.90
2022-11-14T06:26:52.657Z,10.95
2022-11-14T06:29:38.148Z,11.70
2022-11-14T06:32:23.384Z,10.95
2022-11-14T06:35:08.910Z,10.85
2022-11-14T06:37:54.682Z,10.65
2022-11-14T06:40:40.230Z,11.70
2022-11-14T06:43:25.423Z,10.75
2022-11-14T06:46:13.580Z,12.25
2022-11-14T06:48:58.578Z,11.63
2022-11-14T06:51:43.690Z,11.73
2022-11-14T06:54:29.109Z,11.18
2022-11-14T06:57:14.350Z,13.82
2022-11-14T06:59:59.647Z,11.93
2022-11-14T07:02:48.893Z,11.73
2022-11-14T07:05:34.374Z,12.20
2022-11-14T07:08:21.195Z,10.68
2022-11-14T07:11:09.397Z,10.55
2022-11-14T07:13:57.523Z,9.98
2022-11-14T07:16:42.660Z,9.68
2022-11-14T07:19:28.101Z,9.63
2022-11-14T07:22:13.227Z,10.32
2022-11-14T07:24:58.447Z,9.65
2022-11-14T07:27:43.469Z,9.88
2022-11-14T07:30:28.791Z,9.60
2022-11-14T07:33:14.152Z,10.82
2022-11-14T07:35:59.567Z,9.73
2022-11-14T07:38:44.590Z,9.60
2022-11-14T07:41:32.098Z,15.82
2022-11-14T07:44:17.301Z,9.20
2022-11-14T07:47:02.543Z,9.70
2022-11-14T07:49:47.651Z,9.55
2022-11-14T07:52:33.459Z,9.88
2022-11-14T07:55:19.218Z,10.57
2022-11-14T07:58:04.787Z,10.45
2022-11-14T08:00:49.978Z,9.88
2022-11-14T08:03:35.344Z,13.43
2022-11-14T08:06:20.595Z,10.38
2022-11-14T08:09:05.690Z,9.43
2022-11-14T08:11:51.799Z,10.77
2022-11-14T08:14:36.781Z,10.18
2022-11-14T08:17:22.962Z,10.90
2022-11-14T08:20:09.777Z,9.75
2022-11-14T08:23:01.691Z,10.23
2022-11-14T08:25:47.086Z,11.00
2022-11-14T08:28:33.005Z,10.70
2022-11-14T08:31:18.780Z,10.20
2022-11-14T08:34:04.073Z,10.85
2022-11-14T08:36:49.640Z,10.02
2022-11-14T08:39:34.758Z,9.18
2022-11-14T08:42:19.715Z,10.05
2022-11-14T08:45:05.686Z,10.70
2022-11-14T08:47:52.555Z,9.57
2022-11-14T08:50:37.846Z,10.50
2022-11-14T08:53:23.692Z,10.95
2022-11-14T08:56:10.905Z,10.77
2022-11-14T08:58:56.050Z,10.32
2022-11-14T09:01:41.394Z,10.45
2022-11-14T09:04:26.853Z,10.50
2022-11-14T09:07:12.046Z,9.70
2022-11-14T09:09:57.596Z,10.82
2022-11-14T09:12:42.833Z,10.95
2022-11-14T09:15:28.908Z,11.48
2022-11-14T09:18:13.856Z,10.77
2022-11-14T09:21:00.968Z,10.50
2022-11-14T09:23:49.580Z,10.75
2022-11-14T09:26:34.949Z,9.43
2022-11-14T09:29:20.301Z,10.27
2022-11-14T09:32:05.540Z,9.43
2022-11-14T09:34:50.833Z,10.55
2022-11-14T09:37:37.051Z,9.65
2022-11-14T09:40:22.580Z,10.80
2022-11-14T09:43:28.889Z,9.70
2022-11-14T09:46:22.279Z,9.77
2022-11-14T09:49:29.030Z,9.15
2022-11-14T09:52:32.947Z,9.45
2022-11-14T09:55:35.149Z,10.90
2022-11-14T09:58:23.171Z,11.20
2022-11-14T10:02:00.378Z,9.77
2022-11-14T10:05:03.648Z,8.80
2022-11-14T10:08:16.373Z,8.52
2022-11-14T10:11:16.975Z,9.43
2022-11-14T10:14:13.907Z,7.85
2022-11-14T10:17:23.997Z,9.90
2022-11-14T10:20:40.844Z,10.95
2022-11-14T10:23:38.308Z,8.63
2022-11-14T10:26:43.256Z,7.43
2022-11-14T10:29:47.299Z,9.30
2022-11-14T10:32:47.373Z,8.98
2022-11-14T10:35:41.701Z,10.45
2022-11-14T10:38:35.263Z,9.35
2022-11-14T10:41:49.778Z,10.38
2022-11-14T10:44:34.931Z,9.10
2022-11-14T10:47:22.757Z,10.43
2022-11-14T10:50:23.560Z,8.18
2022-11-14T10:53:24.440Z,8.43
2022-11-14T10:56:14.645Z,9.27
2022-11-14T10:58:59.826Z,9.38
2022-11-14T11:01:56.991Z,8.07
2022-11-14T11:04:44.063Z,7.10
2022-11-14T11:07:47.896Z,7.50
2022-11-14T11:10:55.301Z,8.77
2022-11-14T11:13:51.752Z,8.95
2022-11-14T11:16:36.648Z,8.57
2022-11-14T11:19:27.183Z,6.28
2022-11-14T11:22:37.358Z,5.15
2022-11-14T11:25:28.138Z,5.30
2022-11-14T11:28:14.917Z,5.65
2022-11-14T11:31:03.233Z,4.88
2022-11-14T11:33:48.855Z,5.00
2022-11-14T11:36:40.290Z,4.40
2022-11-14T11:39:31.975Z,5.38
2022-11-14T11:43:31.600Z,6.50
2022-11-14T11:45:50.499Z,5.30
2022-11-14T11:48:39.701Z,4.05
2022-11-14T11:51:27.085Z,4.00
2022-11-14T11:54:18.336Z,4.00
2022-11-14T11:57:13.990Z,5.53
2022-11-14T12:00:20.404Z,5.30
2022-11-14T12:03:12.283Z,5.68
2022-11-14T12:06:20.296Z,6.20
2022-11-14T12:10:08.331Z,6.43
2022-11-14T12:12:45.017Z,6.95
2022-11-14T12:15:45.773Z,5.60
2022-11-14T12:18:52.121Z,6.00
2022-11-14T12:21:58.590Z,6.55
2022-11-14T12:24:47.340Z,6.75
2022-11-14T12:27:54.050Z,6.03
2022-11-14T12:30:42.430Z,6.80
2022-11-14T12:33:33.124Z,8.37
2022-11-14T12:36:18.812Z,7.05
2022-11-14T12:39:04.282Z,7.13
2022-11-14T12:41:49.453Z,6.82
2022-11-14T12:44:39.785Z,8.25
2022-11-14T12:47:28.803Z,8.07
2022-11-14T12:50:39.879Z,8.47
2022-11-14T12:53:37.423Z,6.93
2022-11-14T12:56:31.517Z,7.00
2022-11-14T12:59:28.819Z,6.85
2022-11-14T13:02:46.639Z,6.00
2022-11-14T13:05:48.718Z,6.35
2022-11-14T13:08:56.238Z,6.03
2022-11-14T13:12:01.519Z,5.70
2022-11-14T13:15:14.226Z,5.97
2022-11-14T13:18:23.022Z,5.88
2022-11-14T13:21:46.195Z,5.70
2022-11-14T13:24:59.524Z,6.43
2022-11-14T13:28:06.494Z,5.75
2022-11-14T13:31:15.059Z,5.95
2022-11-14T13:34:01.230Z,6.15
2022-11-14T13:36:58.558Z,6.43
2022-11-14T13:40:13.873Z,5.32
2022-11-14T13:43:04.813Z,6.25
2022-11-14T13:46:16.869Z,5.25
2022-11-14T13:49:14.667Z,6.03
2022-11-14T13:51:59.970Z,5.57
2022-11-14T13:54:49.617Z,6.32
2022-11-14T14:01:04.881Z,5.38
2022-11-14T14:04:08.886Z,5.50
2022-11-14T14:07:33.108Z,5.82
2022-11-14T14:10:40.019Z,5.22
2022-11-14T14:13:44.839Z,6.10
2022-11-14T14:16:51.549Z,4.70
2022-11-14T14:20:02.082Z,5.25
2022-11-14T14:22:58.609Z,5.75
2022-11-14T14:26:00.114Z,6.25
2022-11-14T14:28:56.245Z,6.65
2022-11-14T14:31:42.145Z,7.28
2022-11-14T14:34:29.758Z,7.13
2022-11-14T14:37:25.109Z,7.68
2022-11-14T14:40:24.775Z,8.32
2022-11-14T14:43:31.409Z,8.75
2022-11-14T14:46:25.550Z,8.57
2022-11-14T14:49:10.757Z,7.15
2022-11-14T14:51:58.758Z,9.45
2022-11-14T14:54:54.831Z,7.20
2022-11-14T14:57:40.217Z,6.65
2022-11-14T15:00:26.281Z,5.80
2022-11-14T15:03:11.601Z,5.25
2022-11-14T15:06:02.381Z,5.80
2022-11-14T15:08:47.914Z,6.75
2022-11-14T15:11:35.161Z,5.85
2022-11-14T15:14:25.648Z,6.25
2022-11-14T15:17:11.962Z,7.75
2022-11-14T15:19:57.031Z,7.68
2022-11-14T15:22:42.435Z,8.02
2022-11-14T15:25:27.841Z,7.75
2022-11-14T15:28:19.705Z,7.20
2022-11-14T15:31:05.884Z,5.50
2022-11-14T15:34:23.718Z,5.43
2022-11-14T15:37:16.077Z,6.72
2022-11-14T15:40:21.684Z,6.75
2022-11-14T15:43:48.384Z,7.50
2022-11-14T15:46:33.572Z,6.50
2022-11-14T15:49:27.474Z,6.25
2022-11-14T15:52:30.488Z,7.70
2022-11-14T15:55:19.224Z,6.70
2022-11-14T15:58:27.023Z,6.50
2022-11-14T16:01:19.215Z,6.30
2022-11-14T16:04:04.877Z,6.15
2022-11-14T16:06:50.132Z,6.05
2022-11-14T16:09:37.770Z,6.45
2022-11-14T16:12:22.933Z,5.75
2022-11-14T16:15:08.619Z,6.57
2022-11-14T16:17:54.053Z,6.38
2022-11-14T16:20:39.650Z,6.88
2022-11-14T16:23:24.964Z,7.47
2022-11-14T16:26:10.441Z,7.45
2022-11-14T16:28:57.024Z,6.68
2022-11-14T16:31:42.457Z,6.55
2022-11-14T16:34:27.779Z,7.43
2022-11-14T16:37:14.487Z,8.70
2022-11-14T16:39:59.926Z,7.15
2022-11-14T16:42:45.865Z,7.10
2022-11-14T16:45:31.296Z,7.43
2022-11-14T16:48:16.688Z,8.98
2022-11-14T16:51:14.819Z,7.75
2022-11-14T16:54:05.501Z,6.05
2022-11-14T16:56:50.840Z,6.63
2022-11-14T16:59:36.350Z,6.30
2022-11-14T17:02:21.835Z,5.50
2022-11-14T17:05:07.201Z,6.60
2022-11-14T17:07:52.053Z,6.80
2022-11-14T17:10:45.304Z,6.65
2022-11-14T17:13:31.882Z,6.95
2022-11-14T17:16:17.518Z,6.85
2022-11-14T17:19:02.916Z,6.07
2022-11-14T17:21:47.916Z,7.45
2022-11-14T17:24:33.297Z,8.27
2022-11-14T17:27:18.454Z,5.65
2022-11-14T17:30:04.026Z,6.38
2022-11-14T17:32:53.731Z,6.53
2022-11-14T17:35:41.960Z,6.43
2022-11-14T17:38:27.092Z,6.30
2022-11-14T17:41:12.429Z,6.20
2022-11-14T17:44:01.742Z,7.45
2022-11-14T17:46:47.816Z,5.38
2022-11-14T17:49:33.210Z,7.82
2022-11-14T17:52:19.035Z,6.78
2022-11-14T17:55:04.342Z,6.25
2022-11-14T17:57:49.362Z,5.72
2022-11-14T18:00:34.809Z,6.70
2022-11-14T18:03:20.913Z,6.90
2022-11-14T18:06:11.405Z,6.05
2022-11-14T18:08:56.393Z,7.30
2022-11-14T18:11:41.674Z,5.63
2022-11-14T18:14:26.972Z,5.88
2022-11-14T18:17:13.569Z,6.68
2022-11-14T18:20:01.583Z,8.43
2022-11-14T18:22:46.649Z,6.43
2022-11-14T18:25:31.717Z,6.63
2022-11-14T18:28:17.439Z,5.70
2022-11-14T18:31:04.524Z,6.72
2022-11-14T18:33:49.718Z,6.25
2022-11-14T18:36:34.974Z,6.78
2022-11-14T18:39:20.205Z,8.20
2022-11-14T18:42:05.835Z,5.88
2022-11-14T18:44:51.410Z,8.00
2022-11-14T18:47:36.561Z,7.43
2022-11-14T18:50:21.710Z,5.80
2022-11-14T18:53:06.901Z,5.80
2022-11-14T18:55:53.252Z,7.60
2022-11-14T18:58:39.878Z,7.38
2022-11-14T19:01:28.336Z,6.28
2022-11-14T19:04:17.076Z,6.82
2022-11-14T19:07:03.646Z,6.80
2022-11-14T19:09:49.123Z,6.75
2022-11-14T19:12:34.441Z,6.30
2022-11-14T19:15:19.807Z,6.10
2022-11-14T19:18:05.231Z,5.45
2022-11-14T19:21:00.897Z,5.22
2022-11-14T19:23:46.565Z,5.78
2022-11-14T19:26:32.348Z,5.20
2022-11-14T19:29:17.327Z,5.78
2022-11-14T19:32:02.806Z,4.97
2022-11-14T19:34:48.086Z,5.53
2022-11-14T19:37:33.401Z,5.45
2022-11-14T19:40:18.858Z,5.15
2022-11-14T19:43:07.491Z,5.22
2022-11-14T19:45:53.065Z,5.15
2022-11-14T19:48:38.954Z,5.05
2022-11-14T19:51:24.971Z,5.45
2022-11-14T19:54:11.136Z,5.63
2022-11-14T19:56:55.996Z,5.28
2022-11-14T19:59:41.580Z,4.32
2022-11-14T20:02:28.561Z,5.28
2022-11-14T20:05:13.800Z,5.35
2022-11-14T20:07:59.157Z,5.07
2022-11-14T20:11:01.155Z,6.10
2022-11-14T20:13:46.523Z,5.50
2022-11-14T20:16:34.207Z,5.05
2022-11-14T20:19:19.522Z,5.68
2022-11-14T20:22:06.607Z,6.15
2022-11-14T20:24:52.048Z,4.70
2022-11-14T20:27:37.487Z,5.00
2022-11-14T20:30:24.067Z,6.95
2022-11-14T20:33:09.527Z,5.47
2022-11-14T20:35:55.465Z,5.63
2022-11-14T20:38:41.522Z,5.43
2022-11-14T20:41:26.629Z,5.43
2022-11-14T20:44:12.064Z,5.40
2022-11-14T20:46:57.639Z,5.72
2022-11-14T20:49:44.227Z,6.32
2022-11-14T20:52:29.287Z,5.95
2022-11-14T20:55:15.655Z,5.75
2022-11-14T20:58:01.043Z,5.40
2022-11-14T21:00:46.141Z,5.07
2022-11-14T21:03:31.972Z,5.00
2022-11-14T21:06:17.578Z,5.63
2022-11-14T21:09:03.220Z,5.13
2022-11-14T21:11:48.599Z,5.18
2022-11-14T21:14:34.205Z,5.00
2022-11-14T21:17:19.348Z,6.10
2022-11-14T21:20:05.060Z,4.93
2022-11-14T21:22:50.114Z,4.82
2022-11-14T21:25:35.592Z,5.03
2022-11-14T21:28:21.043Z,5.78
2022-11-14T21:31:18.557Z,5.28
2022-11-14T21:34:10.282Z,4.38
2022-11-14T21:36:55.335Z,4.63
2022-11-14T21:39:40.740Z,4.53
2022-11-14T21:42:26.001Z,5.45
2022-11-14T21:45:11.482Z,4.45
2022-11-14T21:47:56.371Z,4.22
2022-11-14T21:50:41.726Z,4.60
2022-11-14T21:53:28.262Z,4.00
2022-11-14T21:56:24.199Z,3.75
2022-11-14T21:59:14.572Z,5.15
2022-11-14T22:02:18.506Z,4.15
2022-11-14T22:05:03.786Z,3.85
2022-11-14T22:07:48.790Z,4.75
2022-11-14T22:10:33.882Z,5.20
2022-11-14T22:13:19.518Z,3.95
2022-11-14T22:16:05.986Z,4.05
2022-11-14T22:18:56.301Z,4.25
2022-11-14T22:21:43.465Z,3.53
2022-11-14T22:24:28.765Z,4.03
2022-11-14T22:27:13.936Z,3.55
2022-11-14T22:29:59.163Z,4.07
2022-11-14T22:32:44.323Z,4.10
2022-11-14T22:35:29.970Z,3.17
2022-11-14T22:38:15.323Z,5.10
2022-11-14T22:41:01.287Z,3.20
2022-11-14T22:43:47.161Z,3.28
2022-11-14T22:46:32.604Z,3.53
2022-11-14T22:49:21.052Z,3.13
2022-11-14T22:52:06.748Z,3.15
2022-11-14T22:54:51.831Z,3.28
2022-11-14T22:57:37.264Z,2.97
2022-11-14T23:00:22.370Z,3.63
2022-11-14T23:03:07.812Z,2.83
2022-11-14T23:05:53.137Z,2.53
2022-11-14T23:08:38.861Z,4.15
2022-11-14T23:11:30.543Z,4.13
2022-11-14T23:14:16.100Z,3.13
2022-11-14T23:17:01.357Z,3.50
2022-11-14T23:19:46.732Z,3.90
2022-11-14T23:22:32.048Z,3.17
2022-11-14T23:25:17.544Z,3.30
2022-11-14T23:28:02.780Z,3.10
2022-11-14T23:30:48.173Z,4.05
2022-11-14T23:33:33.770Z,3.65
2022-11-14T23:36:19.643Z,3.80
2022-11-14T23:39:05.012Z,3.67
2022-11-14T23:41:50.253Z,3.65
2022-11-14T23:44:35.679Z,4.35
2022-11-14T23:47:20.800Z,5.82
2022-11-14T23:50:06.425Z,3.15
2022-11-14T23:52:51.429Z,4.50
2022-11-14T23:55:37.231Z,8.00
2022-11-14T23:58:23.918Z,3.10
